Tiempo atmosférico en la estación meteorológica de Mollerussa, Lleida (250 m.)



Fecha
DESCASC
Temp. máxima en grados centígrados (hora)
DESCASC
Temp. mínima en grados centígrados (hora)
DESCASC
Temp. media en grados centígrados
DESCASC
Racha de viento máxima en m/sg (hora)
DESCASC
Velocidad máxima media en intervalos de 10 minutos(hora)
DESCASC
Precipitaciones diarias en mm
DESCASC
Precipitaciones de 00:00 a 06:00 en mm
DESCASC
Precipitaciones de 06:00 a 12:00 en mm
DESCASC
Precipitaciones de 12:00 a 18:00 en mm
DESCASC
Precipitaciones de 18:00 a 24:00 en mm
DESCASC
28-05-2020 29.3 (17:30) 15.7 (06:20) 22.5 8.33 (18:20) 4.72 (18:40) 0 0 0 0 0
27-05-2020 29.1 (16:40) 18.9 (06:40) 24 9.44 (18:50) 6.11 (18:50) 0 0 0 0 0
26-05-2020 29.3 (18:30) 15.7 (06:40) 22.5 5.83 (15:00) 3.33 (23:10) 0 0 0 0 0
25-05-2020 26.9 (17:30) 16.6 (04:10) 21.8 6.11 (11:10) 3.06 (10:30) 1 0 1 0 0
24-05-2020 26.7 (18:50) 15.3 (07:10) 21 6.67 (03:30) 3.89 (03:30) 0 0 0 0 0
23-05-2020 30.7 (18:50) 13.7 (06:40) 22.2 6.67 (21:50) 3.61 (22:00) 0 0 0 0 0
22-05-2020 33.2 (17:40) 14.5 (06:50) 23.9 8.33 (19:10) 5.28 (19:10) 0 0 0 0 0

Gráficas

Temp. máximas Temp. mínimas Temp. medias Precipitaciones Rachas de viento máximas Velocidades máximas media en intervalos de 10 minutos

Datos horarios

Fecha y hora oficial Temperatura (ºC) Velocidad del viento (km/h) Dirección del viento Racha (km/h) Dirección de racha Precipitación (mm) Presión (hPa) Tendencia (hPa) Humedad (%)
2020-05-31 23:00:00 16.8 10 Sudeste 19 Sudeste 5.8 -- -- 87
2020-05-31 22:00:00 19.6 10 Oeste 25 Oeste 0 -- -- 68
2020-05-31 21:00:00 20.2 6 Sudeste 22 Sudeste 0 -- -- 69
2020-05-31 20:00:00 21.2 15 Sudeste 37 Sudeste 0 -- -- 69
2020-05-31 19:00:00 22.5 22 Sudeste 36 Sudeste 0 -- -- 66
2020-05-31 18:00:00 24.7 20 Sudeste 34 Sudeste 0 -- -- 60
2020-05-31 17:00:00 26.3 19 Sudeste 30 Sudeste 0 -- -- 54
2020-05-31 16:00:00 27.2 15 Sudeste 33 Este 0 -- -- 52
2020-05-31 15:00:00 27.3 10 Sudeste 20 Sudeste 0 -- -- 53
2020-05-31 14:00:00 26.6 9 Sudeste 19 Este 0 -- -- 51
2020-05-31 13:00:00 25.4 5 Este 15 Norte 0 -- -- 53
2020-05-31 12:00:00 24.5 6 Oeste 13 Nordeste 0 -- -- 54
2020-05-31 11:00:00 23.3 4 Nordeste 11 Nordeste 0 -- -- 58
2020-05-31 10:00:00 21.6 4 Nordeste 9 Este 0 -- -- 64
2020-05-31 09:00:00 19.5 5 Este 12 Este 0 -- -- 76
2020-05-31 08:00:00 16.1 3 Sudeste 6 Sudeste 0 -- -- 91
2020-05-31 07:00:00 14 3 Sudeste 5 Sudeste 0 -- -- 92
2020-05-31 06:00:00 14.2 4 Sudeste 8 Sudeste 0 -- -- 91
2020-05-31 05:00:00 14.9 3 Este 12 Este 0 -- -- 91
2020-05-31 04:00:00 15.1 2 Este 8 Nordeste 0 -- -- 89
2020-05-31 03:00:00 15.6 5 Nordeste 9 Nordeste 0 -- -- 89
2020-05-31 02:00:00 16.3 0 Calma 12 Este 0 -- -- 86
2020-05-31 01:00:00 17.4 6 Este 15 Este 0 -- -- 83
2020-05-31 00:00:00 18 5 Este 17 Este 0 -- -- 81
2020-05-30 23:00:00 18.5 7 Este 18 Sudeste 0 -- -- 79
2020-05-30 22:00:00 19.1 8 Sudeste 23 Sudeste 0 -- -- 77
2020-05-30 21:00:00 20.6 14 Sur 32 Sudeste 0 -- -- 71
2020-05-30 20:00:00 22.4 13 Sudeste 33 Sudeste 0 -- -- 66
2020-05-30 19:00:00 24.3 22 Sudeste 34 Sudeste 0 -- -- 61
2020-05-30 18:00:00 25.7 18 Sudeste 32 Sudeste 0 -- -- 58
2020-05-30 17:00:00 26.3 17 Sudeste 27 Sudeste 0 -- -- 57
2020-05-30 16:00:00 27.2 8 Este 17 Este 0 -- -- 53
2020-05-30 15:00:00 26.5 5 Nordeste 14 Nordeste 0 -- -- 46
2020-05-30 14:00:00 26.8 5 Sudeste 14 Oeste 0 -- -- 49
2020-05-30 13:00:00 25.6 4 Norte 13 Norte 0 -- -- 46
2020-05-30 12:00:00 25.1 5 Sudoeste 14 Sudeste 0 -- -- 48
2020-05-30 11:00:00 23.7 6 Este 13 Nordeste 0 -- -- 50
2020-05-30 10:00:00 21.7 4 Este 11 Nordeste 0 -- -- 62
2020-05-30 09:00:00 19.7 5 Este 15 Este 0 -- -- 70
2020-05-30 08:00:00 16.6 5 Este 10 Nordeste 0 -- -- 80
2020-05-30 07:00:00 15.1 0 Calma 14 Este 0 -- -- 83
2020-05-30 06:00:00 15.6 3 Este 10 Este 0 -- -- 78
2020-05-30 05:00:00 15.7 3 Sudeste 7 Este 0 -- -- 79
2020-05-30 04:00:00 16.4 5 Sudeste 10 Este 0 -- -- 71
2020-05-30 03:00:00 16.5 5 Este 15 Este 0 -- -- 77
2020-05-30 02:00:00 16.7 5 Este 19 Este 0 -- -- 78
2020-05-30 01:00:00 17 6 Nordeste 27 Este 0 -- -- 78
2020-05-30 00:00:00 17.3 9 Nordeste 22 Este 0 -- -- 72
2020-05-29 23:00:00 19.1 18 Este 37 Este 0 -- -- 60
2020-05-29 22:00:00 18.9 21 Este 39 Este 0 -- -- 64
2020-05-29 21:00:00 21.5 13 Este 37 Sudeste 0 -- -- 51
2020-05-29 20:00:00 23.6 20 Este 37 Sudeste 0 -- -- 58
2020-05-29 19:00:00 28.7 12 Sur 28 Sur 0 -- -- 47
2020-05-29 18:00:00 30.9 5 Oeste 21 Oeste 0 -- -- 33
2020-05-29 17:00:00 30.4 7 Oeste 21 Noroeste 0 -- -- 36
2020-05-29 16:00:00 29.9 7 Noroeste 21 Oeste 0 -- -- 40
2020-05-29 15:00:00 29 7 Oeste 19 Oeste 0 -- -- 48
2020-05-29 14:00:00 27.8 6 Oeste 15 Noroeste 0 -- -- 45
2020-05-29 13:00:00 26.6 7 Sudoeste 14 Oeste 0 -- -- 52
2020-05-29 12:00:00 25.4 4 Oeste 11 Oeste 0 -- -- 54
2020-05-29 11:00:00 23.4 3 Noroeste 9 Oeste 0 -- -- 58
2020-05-29 10:00:00 21.6 3 Oeste 8 Oeste 0 -- -- 71
2020-05-29 09:00:00 19.4 3 Noroeste 6 Norte 0 -- -- 76
2020-05-29 08:00:00 16.3 0 Calma 8 Sudeste 0 -- -- 84
2020-05-29 07:00:00 13.7 4 Sudeste 6 Sudeste 0 -- -- 89
2020-05-29 06:00:00 14.3 0 Calma 6 Sudeste 0 -- -- 86
2020-05-29 05:00:00 15.1 3 Sudeste 6 Sur 0 -- -- 82
2020-05-29 04:00:00 15 2 Sudeste 6 Sur 0 -- -- 81
2020-05-29 03:00:00 15.6 2 Sur 4 Sur 0 -- -- 80
2020-05-29 02:00:00 16.6 3 Sudeste 9 Nordeste 0 -- -- 77
2020-05-29 01:00:00 17 3 Este 7 Sudeste 0 -- -- 74
2020-05-29 00:00:00 18.1 0 Calma 11 Este 0 -- -- 72
2020-05-28 23:00:00 19 6 Este 13 Sudeste 0 -- -- 75
2020-05-28 22:00:00 20.2 11 Sur 21 Sur 0 -- -- 71
2020-05-28 21:00:00 22.1 11 Sur 25 Sudeste 0 -- -- 63
2020-05-28 20:00:00 24.4 14 Sur 26 Sudeste 0 -- -- 55
2020-05-28 19:00:00 26 17 Sudeste 30 Sudeste 0 -- -- 50
2020-05-28 18:00:00 28.1 16 Sudeste 27 Sudeste 0 -- -- 46
2020-05-28 17:00:00 29.1 7 Oeste 17 Noroeste 0 -- -- 46
2020-05-28 16:00:00 28.4 6 Oeste 17 Sur 0 -- -- 43
2020-05-28 15:00:00 27.7 8 Oeste 16 Sudoeste 0 -- -- 47
2020-05-28 14:00:00 26.8 5 Oeste 13 Oeste 0 -- -- 46
2020-05-28 13:00:00 25.7 4 Oeste 13 Oeste 0 -- -- 49
2020-05-28 12:00:00 24.2 5 Oeste 9 Oeste 0 -- -- 49
2020-05-28 11:00:00 22.6 3 Oeste 10 Oeste 0 -- -- 55
2020-05-28 10:00:00 20.3 6 Oeste 10 Noroeste 0 -- -- 66
2020-05-28 09:00:00 18.4 3 Oeste 8 Sudoeste 0 -- -- 73
2020-05-28 08:00:00 17.6 2 Sudeste 7 Sudeste 0 -- -- 73
2020-05-28 07:00:00 15.9 4 Sudeste 9 Sur 0 -- -- 78
2020-05-28 06:00:00 15.8 3 Sur 5 Sudeste 0 -- -- 73
2020-05-28 05:00:00 16.3 3 Sur 13 Sudeste 0 -- -- 73
2020-05-28 04:00:00 16.6 5 Sudeste 9 Sur 0 -- -- 72
2020-05-28 03:00:00 17.5 5 Sudeste 12 Este 0 -- -- 68
2020-05-28 02:00:00 17.9 5 Sur 11 Sudeste 0 -- -- 69
2020-05-28 01:00:00 18.7 6 Sudeste 10 Sudeste 0 -- -- 65
2020-05-28 00:00:00 19.3 5 Sudeste 10 Sudeste 0 -- -- 59
2020-05-27 23:00:00 19.1 0 Calma 8 Este 0 -- -- 61
2020-05-27 22:00:00 20.3 0 Calma 20 Sudeste 0 -- -- 54
2020-05-27 21:00:00 22.1 5 Sudoeste 24 Sudeste 0 -- -- 46
2020-05-27 20:00:00 24 16 Sur 33 Sur 0 -- -- 44
2020-05-27 19:00:00 25.4 22 Sur 34 Sudeste 0 -- -- 44
2020-05-27 18:00:00 26.8 18 Sudeste 31 Sudeste 0 -- -- 47
2020-05-27 17:00:00 28.6 12 Sur 21 Sudeste 0 -- -- 46
2020-05-27 16:00:00 28.8 6 Oeste 14 Sudoeste 0 -- -- 47
2020-05-27 15:00:00 28.2 5 Sur 15 Oeste 0 -- -- 45
2020-05-27 14:00:00 27 7 Noroeste 19 Oeste 0 -- -- 48
2020-05-27 13:00:00 27.3 8 Oeste 19 Noroeste 0 -- -- 46
2020-05-27 12:00:00 26 7 Oeste 15 Oeste 0 -- -- 56
2020-05-27 11:00:00 24.9 6 Oeste 13 Oeste 0 -- -- 56
2020-05-27 10:00:00 24.1 5 Sudoeste 10 Oeste 0 -- -- 54
2020-05-27 09:00:00 21.5 0 Calma 8 Este 0 -- -- 68
2020-05-27 08:00:00 19.3 4 Sudeste 8 Este 0 -- -- 79
2020-05-27 07:00:00 18.9 4 Sur 6 Sur 0 -- -- 78
2020-05-27 06:00:00 19 0 Calma 4 Noroeste 0 -- -- 77
2020-05-27 05:00:00 19.1 0 Calma 7 Sur 0 -- -- 72
2020-05-27 04:00:00 19.2 5 Sur 7 Sur 0 -- -- 70
2020-05-27 03:00:00 19.4 3 Nordeste 6 Nordeste 0 -- -- 71
2020-05-27 02:00:00 19.5 2 Noroeste 5 Noroeste 0 -- -- 71
2020-05-27 01:00:00 19.6 0 Calma 8 Norte 0 -- -- 70
2020-05-27 00:00:00 20.1 4 Nordeste 19 Sur 0 -- -- 64
2020-05-26 23:00:00 20.1 10 Sur 16 Sur 0 -- -- 60
2020-05-26 22:00:00 21.9 10 Sur 16 Sur 0 -- -- 58
2020-05-26 21:00:00 24.6 6 Sudoeste 13 Oeste 0 -- -- 55
2020-05-26 20:00:00 27.8 4 Oeste 12 Oeste 0 -- -- 50
2020-05-26 19:00:00 29 4 Sudoeste 10 Sudoeste 0 -- -- 44
2020-05-26 18:00:00 29.2 6 Oeste 14 Noroeste 0 -- -- 47
2020-05-26 17:00:00 28.6 6 Oeste 16 Oeste 0 -- -- 49
2020-05-26 16:00:00 27.9 8 Oeste 19 Oeste 0 -- -- 50
2020-05-26 15:00:00 27.5 9 Noroeste 21 Oeste 0 -- -- 55
2020-05-26 14:00:00 26.4 8 Noroeste 18 Oeste 0 -- -- 59
2020-05-26 13:00:00 25.8 6 Oeste 17 Oeste 0 -- -- 60
2020-05-26 12:00:00 25.1 6 Noroeste 15 Oeste 0 -- -- 67
2020-05-26 11:00:00 23.8 6 Oeste 13 Oeste 0 -- -- 71
2020-05-26 10:00:00 21.9 3 Oeste 8 Noroeste 0 -- -- 79
2020-05-26 09:00:00 20.3 5 Oeste 8 Oeste 0 -- -- 82
2020-05-26 08:00:00 18.2 3 Oeste 13 Sudoeste 0 -- -- 87
2020-05-26 07:00:00 16 3 Sur 7 Sudoeste 0 -- -- 93
2020-05-26 06:00:00 16.1 2 Sudoeste 6 Sur 0 -- -- 92
2020-05-26 05:00:00 16.6 4 Sur 6 Sudoeste 0 -- -- 91
2020-05-26 04:00:00 17.5 0 Calma 5 Sudoeste 0 -- -- 90
2020-05-26 03:00:00 18.3 0 Calma 4 Norte 0 -- -- 89
2020-05-26 02:00:00 18 0 Calma 3 Sudeste 0 -- -- 89
2020-05-26 01:00:00 17.8 4 Norte 8 Norte 0 -- -- 85
2020-05-26 00:00:00 18.7 5 Sur 11 Sur 0 -- -- 80
2020-05-25 23:00:00 19.9 5 Sudoeste 9 Oeste 0 -- -- 82
2020-05-25 22:00:00 20.7 5 Sudoeste 10 Oeste 0 -- -- 79
2020-05-25 21:00:00 22.4 4 Oeste 13 Oeste 0 -- -- 73
2020-05-25 20:00:00 25.1 6 Oeste 17 Oeste 0 -- -- 63
2020-05-25 19:00:00 25.7 7 Oeste 21 Oeste 0 -- -- 62
2020-05-25 18:00:00 26.5 8 Oeste 18 Oeste 0 -- -- 61
2020-05-25 17:00:00 26.1 7 Oeste 17 Oeste 0 -- -- 61
2020-05-25 16:00:00 24.9 6 Noroeste 15 Oeste 0 -- -- 65
2020-05-25 15:00:00 24.5 3 Noroeste 10 Oeste 0 -- -- 67
2020-05-25 14:00:00 23.8 4 Nordeste 15 Este 0 -- -- 64
2020-05-25 13:00:00 22.7 2 Este 14 Sur 0 -- -- 69
2020-05-25 12:00:00 21.9 7 Sudoeste 22 Oeste 0 -- -- 70
2020-05-25 11:00:00 20.3 10 Oeste 19 Sudoeste 0 -- -- 79
2020-05-25 10:00:00 20 9 Oeste 16 Oeste 0 -- -- 85
2020-05-25 09:00:00 18.1 2 Nordeste 12 Este 0 -- -- 90
2020-05-25 08:00:00 16.6 5 Sudeste 12 Este 1 -- -- 93
2020-05-25 07:00:00 16.7 2 Sudoeste 8 Sudoeste 0 -- -- 89
2020-05-25 06:00:00 16.7 0 Calma 4 Sur 0 -- -- 88
2020-05-25 05:00:00 16.6 2 Sudeste 5 Sur 0 -- -- 88